Time;durP1;ratioP1;P1;durP2;ratioP2;P2;SDS_P1;SDS_P2;PMS_P1;PMS_P2;Temp;Humidity;BMP_temperature;BMP_pressure;BME280_temperature;BME280_humidity;BME280_pressure;Samples;Min_cycle;Max_cycle;Signal;HPM_P1;HPM_P2
2023/08/16 16:53:14;;;;;;;549.28;433.23;;;;;;;;;;5106301;27;20394;-62
2023/08/16 16:55:39;;;;;;;11.30;3.13;;;;;;;;;;5106740;28;20027;-59
2023/08/16 16:58:06;;;;;;;401.25;305.05;;;;;;;;;;5103471;28;20459;-62
2023/08/16 17:00:32;;;;;;;902.20;594.08;;;;;;;;;;5095962;28;20444;-62
2023/08/16 17:03:00;;;;;;;903.97;598.28;;;;;;;;;;5107051;28;20369;-62
2023/08/16 17:05:28;;;;;;;902.15;629.45;;;;;;;;;;5124746;28;20519;-63
2023/08/16 17:07:54;;;;;;;890.73;563.63;;;;;;;;;;5124910;28;20081;-59
2023/08/16 17:10:19;;;;;;;889.40;578.45;;;;;;;;;;5124691;28;20251;-63
2023/08/16 17:12:45;;;;;;;888.25;597.83;;;;;;;;;;5108827;28;20411;-60
2023/08/16 17:15:10;;;;;;;914.42;564.40;;;;;;;;;;5104882;28;20197;-62
2023/08/16 17:17:36;;;;;;;896.80;584.13;;;;;;;;;;5103939;28;20040;-57
2023/08/16 17:20:02;;;;;;;892.40;580.75;;;;;;;;;;5070158;28;20086;-61
2023/08/16 17:22:36;;;;;;;921.25;621.83;;;;;;;;;;5086852;28;20387;-61
2023/08/16 17:25:03;;;;;;;899.90;604.17;;;;;;;;;;5103623;28;20028;-59
2023/08/16 17:27:28;;;;;;;917.88;616.05;;;;;;;;;;5103875;28;20097;-61
2023/08/16 17:29:53;;;;;;;923.13;642.90;;;;;;;;;;5104027;28;20476;-62
2023/08/16 17:32:19;;;;;;;919.53;642.75;;;;;;;;;;5109481;28;20030;-60
2023/08/16 17:34:45;;;;;;;924.65;634.58;;;;;;;;;;5124365;28;20027;-61
2023/08/16 17:37:10;;;;;;;920.85;635.17;;;;;;;;;;5113222;28;20063;-62
2023/08/16 17:39:36;;;;;;;921.38;628.00;;;;;;;;;;5103525;28;20045;-61
2023/08/16 17:42:03;;;;;;;918.78;611.25;;;;;;;;;;5100979;28;20068;-61
2023/08/16 17:44:28;;;;;;;919.47;618.45;;;;;;;;;;5099982;28;20027;-61
2023/08/16 17:46:54;;;;;;;922.97;641.83;;;;;;;;;;5106317;28;20020;-61
2023/08/16 17:49:19;;;;;;;921.58;636.58;;;;;;;;;;5101022;28;20385;-60
2023/08/16 17:51:46;;;;;;;922.88;642.60;;;;;;;;;;5084463;28;20048;-59
2023/08/16 17:54:13;;;;;;;921.22;635.60;;;;;;;;;;5072318;28;20060;-62
2023/08/16 17:56:39;;;;;;;918.40;611.53;;;;;;;;;;5072317;28;20029;-62
2023/08/16 17:59:04;;;;;;;920.35;640.72;;;;;;;;;;5072449;28;20085;-62
2023/08/16 18:01:30;;;;;;;921.90;645.15;;;;;;;;;;5072372;28;20025;-61
2023/08/16 18:03:56;;;;;;;911.08;648.30;;;;;;;;;;5072563;28;20039;-63
2023/08/16 18:06:21;;;;;;;923.63;656.65;;;;;;;;;;5072925;28;20186;-62
2023/08/16 18:08:47;;;;;;;913.80;647.90;;;;;;;;;;5087003;28;20514;-58
2023/08/16 18:11:12;;;;;;;924.97;651.78;;;;;;;;;;5072007;28;20020;-62
2023/08/16 18:13:38;;;;;;;920.38;642.25;;;;;;;;;;5072038;28;20373;-56
2023/08/16 18:16:04;;;;;;;922.22;645.08;;;;;;;;;;5070900;28;20029;-61
2023/08/16 18:18:29;;;;;;;918.13;648.05;;;;;;;;;;5072179;28;20027;-62
2023/08/16 18:20:55;;;;;;;912.22;621.63;;;;;;;;;;5072116;28;20043;-59
2023/08/16 18:23:21;;;;;;;911.50;608.35;;;;;;;;;;5072416;28;20013;-58
2023/08/16 18:25:47;;;;;;;909.40;614.85;;;;;;;;;;5071725;28;20443;-56
2023/08/16 18:28:12;;;;;;;912.03;588.80;;;;;;;;;;5071862;28;20040;-61
2023/08/16 18:30:38;;;;;;;896.97;617.35;;;;;;;;;;5071669;28;20035;-61
2023/08/16 18:33:04;;;;;;;867.40;639.30;;;;;;;;;;5069164;28;20056;-61
2023/08/16 18:35:31;;;;;;;866.65;623.10;;;;;;;;;;5071564;28;20025;-59
2023/08/16 18:37:57;;;;;;;850.65;592.75;;;;;;;;;;5089314;28;20379;-61
2023/08/16 18:40:23;;;;;;;845.97;612.47;;;;;;;;;;5086070;28;20115;-61
2023/08/16 18:42:48;;;;;;;904.00;707.03;;;;;;;;;;5071516;28;20021;-61
2023/08/16 18:45:14;;;;;;;853.10;628.08;;;;;;;;;;5071636;28;20025;-61
2023/08/16 18:47:39;;;;;;;840.90;614.28;;;;;;;;;;5071799;28;20028;-62
2023/08/16 18:50:05;;;;;;;857.05;618.17;;;;;;;;;;5071511;28;20097;-60
2023/08/16 18:52:33;;;;;;;845.22;604.95;;;;;;;;;;5070658;28;20083;-61
2023/08/16 18:54:58;;;;;;;882.97;656.63;;;;;;;;;;5070202;28;20461;-61
2023/08/16 18:57:24;;;;;;;859.70;617.85;;;;;;;;;;5075974;28;20039;-61
2023/08/16 18:59:49;;;;;;;860.17;617.75;;;;;;;;;;5090872;28;20079;-61
2023/08/16 19:02:15;;;;;;;892.83;651.03;;;;;;;;;;5090819;28;20598;-60
2023/08/16 19:04:41;;;;;;;857.03;614.30;;;;;;;;;;5053697;28;20389;-61
2023/08/16 19:07:07;;;;;;;875.60;606.33;;;;;;;;;;5090571;28;20043;-61
2023/08/16 19:09:32;;;;;;;939.83;736.00;;;;;;;;;;5090803;28;20465;-61
2023/08/16 19:11:58;;;;;;;884.40;624.83;;;;;;;;;;5089643;28;20096;-59
2023/08/16 19:14:26;;;;;;;926.58;691.47;;;;;;;;;;5084126;28;20024;-61
2023/08/16 19:16:51;;;;;;;872.53;629.67;;;;;;;;;;5070257;28;20020;-61
2023/08/16 19:19:16;;;;;;;893.53;619.60;;;;;;;;;;5067464;28;20070;-58
2023/08/16 19:21:42;;;;;;;911.15;622.53;;;;;;;;;;5067790;28;20040;-60
2023/08/16 19:24:08;;;;;;;751.47;622.22;;;;;;;;;;5050725;28;20040;-61
2023/08/16 19:26:33;;;;;;;812.30;697.92;;;;;;;;;;5067687;28;20024;-60
2023/08/16 19:28:59;;;;;;;768.92;615.58;;;;;;;;;;5050816;28;20036;-61
2023/08/16 19:31:24;;;;;;;796.00;661.80;;;;;;;;;;5045174;28;20401;-62
2023/08/16 19:33:51;;;;;;;769.63;625.40;;;;;;;;;;5047663;28;20043;-58
2023/08/16 19:36:16;;;;;;;831.30;717.65;;;;;;;;;;5047249;28;20016;-61
2023/08/16 19:38:42;;;;;;;822.58;676.38;;;;;;;;;;5047371;28;20028;-59
2023/08/16 19:41:08;;;;;;;810.83;679.50;;;;;;;;;;5047054;28;20090;-57
2023/08/16 19:43:33;;;;;;;834.70;707.33;;;;;;;;;;5046729;28;20075;-61
2023/08/16 19:45:59;;;;;;;841.55;685.30;;;;;;;;;;5046774;28;20079;-61
2023/08/16 19:48:25;;;;;;;846.80;710.55;;;;;;;;;;5050230;28;20111;-61
2023/08/16 19:50:50;;;;;;;872.60;567.95;;;;;;;;;;5066543;28;20052;-61
2023/08/16 19:53:16;;;;;;;862.20;538.08;;;;;;;;;;5050743;28;20303;-61
2023/08/16 19:55:41;;;;;;;795.20;527.40;;;;;;;;;;5067482;28;20028;-61
2023/08/16 19:58:07;;;;;;;851.85;500.38;;;;;;;;;;5070099;28;20115;-61
2023/08/16 20:00:32;;;;;;;876.60;566.90;;;;;;;;;;5069962;28;20059;-59
2023/08/16 20:02:57;;;;;;;883.35;599.50;;;;;;;;;;5070059;28;20199;-61
2023/08/16 20:05:23;;;;;;;801.42;502.17;;;;;;;;;;5070674;28;20025;-58
2023/08/16 20:07:48;;;;;;;783.17;550.25;;;;;;;;;;5070086;28;20059;-61
2023/08/16 20:10:14;;;;;;;900.55;596.83;;;;;;;;;;5070037;28;20429;-58
2023/08/16 20:12:40;;;;;;;925.53;638.50;;;;;;;;;;5070983;28;20059;-61
2023/08/16 20:15:07;;;;;;;754.22;657.13;;;;;;;;;;5069743;28;20579;-54
2023/08/16 20:17:32;;;;;;;732.53;618.50;;;;;;;;;;5069694;28;20396;-61
2023/08/16 20:19:58;;;;;;;709.33;617.38;;;;;;;;;;5069123;28;20020;-61
2023/08/16 20:22:24;;;;;;;725.25;633.08;;;;;;;;;;5069233;28;20404;-60
2023/08/16 20:24:51;;;;;;;723.30;617.72;;;;;;;;;;5083232;28;20032;-61
2023/08/16 20:27:17;;;;;;;696.28;583.75;;;;;;;;;;5068992;28;20036;-59
2023/08/16 20:29:44;;;;;;;762.28;678.10;;;;;;;;;;5068748;28;20404;-59
2023/08/16 20:32:11;;;;;;;722.00;638.10;;;;;;;;;;5068830;28;20032;-61
2023/08/16 20:34:57;;;;;;;730.08;606.03;;;;;;;;;;5069163;28;20036;-58
2023/08/16 20:37:22;;;;;;;741.00;619.22;;;;;;;;;;5081445;28;20036;-61
2023/08/16 20:39:48;;;;;;;907.70;604.50;;;;;;;;;;5088282;28;20392;-59
2023/08/16 20:42:31;;;;;;;907.20;642.75;;;;;;;;;;5089004;28;20093;-60
2023/08/16 20:44:57;;;;;;;907.70;645.92;;;;;;;;;;5089356;28;20066;-58
2023/08/16 20:47:23;;;;;;;892.88;583.42;;;;;;;;;;5086923;28;20125;-60
2023/08/16 20:49:48;;;;;;;894.55;592.50;;;;;;;;;;5089494;28;20012;-61
2023/08/16 20:52:14;;;;;;;915.05;633.75;;;;;;;;;;5089429;28;20044;-60
2023/08/16 20:54:39;;;;;;;899.63;578.42;;;;;;;;;;5089302;28;20054;-60
2023/08/16 20:57:05;;;;;;;924.80;659.78;;;;;;;;;;5088410;28;20024;-60
2023/08/16 20:59:30;;;;;;;897.00;601.42;;;;;;;;;;5103862;28;20106;-61
2023/08/16 21:01:56;;;;;;;876.50;512.50;;;;;;;;;;5089190;28;20093;-61
2023/08/16 21:04:21;;;;;;;888.47;541.83;;;;;;;;;;5089435;28;20103;-60
2023/08/16 21:06:47;;;;;;;881.53;555.45;;;;;;;;;;5089458;28;20035;-56
2023/08/16 21:09:12;;;;;;;881.60;531.78;;;;;;;;;;5089243;28;20101;-61
2023/08/16 21:11:37;;;;;;;891.23;563.73;;;;;;;;;;5103540;28;20067;-60
2023/08/16 21:14:03;;;;;;;837.50;558.75;;;;;;;;;;5088226;28;20245;-57
2023/08/16 21:16:28;;;;;;;872.33;586.45;;;;;;;;;;5089150;28;20104;-60
2023/08/16 21:18:53;;;;;;;873.88;553.17;;;;;;;;;;5089214;28;20032;-60
2023/08/16 21:21:18;;;;;;;828.30;614.67;;;;;;;;;;5069656;28;20463;-60
2023/08/16 21:23:44;;;;;;;886.65;576.95;;;;;;;;;;5089201;28;20245;-59
2023/08/16 21:26:09;;;;;;;925.73;668.53;;;;;;;;;;5089278;28;20030;-60
2023/08/16 21:28:34;;;;;;;817.77;684.37;;;;;;;;;;5091244;28;20621;-61
2023/08/16 21:30:59;;;;;;;812.57;590.80;;;;;;;;;;5091826;28;20249;-57
2023/08/16 21:33:25;;;;;;;777.70;605.47;;;;;;;;;;5092833;28;20249;-57
2023/08/16 21:35:56;;;;;;;905.08;608.67;;;;;;;;;;5092715;28;20101;-60
2023/08/16 21:38:21;;;;;;;781.65;506.30;;;;;;;;;;5072835;28;20122;-60
2023/08/16 21:40:47;;;;;;;835.75;614.53;;;;;;;;;;5072220;28;20489;-56
2023/08/16 21:43:12;;;;;;;855.25;595.92;;;;;;;;;;5085508;28;20028;-58
2023/08/16 21:45:37;;;;;;;789.90;648.70;;;;;;;;;;5092505;28;20400;-61
2023/08/16 21:48:03;;;;;;;755.93;581.27;;;;;;;;;;5091120;28;20032;-59
2023/08/16 21:50:28;;;;;;;837.17;626.65;;;;;;;;;;5092407;28;20264;-60
2023/08/16 21:52:54;;;;;;;888.92;657.17;;;;;;;;;;5089173;28;20059;-60
2023/08/16 21:55:19;;;;;;;903.83;637.60;;;;;;;;;;5092261;28;20055;-56
2023/08/16 21:57:45;;;;;;;919.23;643.63;;;;;;;;;;5091283;28;20555;-59
2023/08/16 22:00:11;;;;;;;857.25;690.33;;;;;;;;;;5089767;28;20272;-59
2023/08/16 22:02:36;;;;;;;783.00;563.50;;;;;;;;;;5080085;28;20595;-60
2023/08/16 22:05:01;;;;;;;779.42;562.17;;;;;;;;;;5092369;28;20027;-61
2023/08/16 22:07:27;;;;;;;736.97;576.70;;;;;;;;;;5089827;28;20385;-58
2023/08/16 22:09:52;;;;;;;730.15;569.17;;;;;;;;;;5092174;28;20024;-59
2023/08/16 22:12:17;;;;;;;763.90;604.17;;;;;;;;;;5089836;28;20106;-61
2023/08/16 22:14:43;;;;;;;774.53;594.10;;;;;;;;;;5071838;28;20035;-60
2023/08/16 22:17:08;;;;;;;767.10;580.20;;;;;;;;;;5089865;28;20032;-58
2023/08/16 22:19:33;;;;;;;810.93;610.67;;;;;;;;;;5092155;28;20249;-61
2023/08/16 22:21:58;;;;;;;786.47;598.43;;;;;;;;;;5089989;28;20284;-61
2023/08/16 22:24:24;;;;;;;740.60;581.50;;;;;;;;;;5091106;28;20260;-61
2023/08/16 22:26:50;;;;;;;756.28;586.28;;;;;;;;;;5087614;28;20408;-61
2023/08/16 22:29:16;;;;;;;742.67;584.45;;;;;;;;;;5089647;28;20020;-57
2023/08/16 22:31:41;;;;;;;735.22;573.33;;;;;;;;;;5088483;28;20492;-61
2023/08/16 22:34:06;;;;;;;759.00;603.13;;;;;;;;;;5092063;28;20073;-60
2023/08/16 22:36:32;;;;;;;792.33;623.33;;;;;;;;;;5088413;28;20023;-58
2023/08/16 22:38:57;;;;;;;831.85;681.45;;;;;;;;;;5071402;28;20028;-59
2023/08/16 22:41:22;;;;;;;756.97;554.63;;;;;;;;;;5071417;28;20029;-62
2023/08/16 22:43:48;;;;;;;826.05;674.72;;;;;;;;;;5091576;28;20020;-60
2023/08/16 22:46:14;;;;;;;796.97;588.85;;;;;;;;;;5087964;28;20020;-58
2023/08/16 22:48:39;;;;;;;843.47;626.75;;;;;;;;;;5089042;28;20515;-60
2023/08/16 22:51:05;;;;;;;868.15;560.47;;;;;;;;;;5091275;28;20122;-58
2023/08/16 22:53:30;;;;;;;891.90;575.22;;;;;;;;;;5089426;28;20020;-60
2023/08/16 22:55:55;;;;;;;886.35;548.35;;;;;;;;;;5088694;28;20028;-59
2023/08/16 22:58:21;;;;;;;909.28;611.22;;;;;;;;;;5089585;28;20032;-53
2023/08/16 23:00:46;;;;;;;882.08;557.90;;;;;;;;;;5091079;28;20039;-58
2023/08/16 23:03:11;;;;;;;850.30;484.83;;;;;;;;;;5089414;28;20400;-60
2023/08/16 23:05:37;;;;;;;793.05;477.15;;;;;;;;;;5091539;28;20024;-57
2023/08/16 23:08:02;;;;;;;823.80;439.33;;;;;;;;;;5089104;28;20448;-60
2023/08/16 23:10:28;;;;;;;851.30;498.55;;;;;;;;;;5091203;28;20477;-59
2023/08/16 23:12:53;;;;;;;903.45;614.58;;;;;;;;;;5088480;28;20037;-61
2023/08/16 23:15:18;;;;;;;862.67;509.33;;;;;;;;;;5089949;28;20058;-61
2023/08/16 23:17:44;;;;;;;844.58;666.60;;;;;;;;;;5088697;28;20028;-56
2023/08/16 23:20:09;;;;;;;847.70;564.45;;;;;;;;;;5088705;28;20028;-58
2023/08/16 23:22:40;;;;;;;828.92;424.27;;;;;;;;;;5088234;28;20056;-57
2023/08/16 23:25:06;;;;;;;814.15;510.08;;;;;;;;;;5079600;28;20028;-61
2023/08/16 23:27:35;;;;;;;838.58;558.38;;;;;;;;;;5085686;28;20108;-55
2023/08/16 23:30:01;;;;;;;898.05;630.17;;;;;;;;;;5089343;28;20443;-60
2023/08/16 23:32:27;;;;;;;877.45;566.10;;;;;;;;;;5089597;28;20119;-57
2023/08/16 23:34:52;;;;;;;915.85;638.88;;;;;;;;;;5088770;28;20028;-61
2023/08/16 23:37:18;;;;;;;852.55;494.38;;;;;;;;;;5088656;28;20043;-55
2023/08/16 23:39:43;;;;;;;912.80;597.42;;;;;;;;;;5090530;28;20028;-58
2023/08/16 23:42:08;;;;;;;907.03;617.87;;;;;;;;;;5088794;28;20088;-58
2023/08/16 23:44:33;;;;;;;889.57;610.10;;;;;;;;;;5088801;28;20591;-60
2023/08/16 23:47:00;;;;;;;887.77;596.13;;;;;;;;;;5087472;28;20268;-55
2023/08/16 23:49:25;;;;;;;854.92;479.92;;;;;;;;;;5090331;28;20252;-59
2023/08/16 23:51:51;;;;;;;782.50;491.83;;;;;;;;;;5088316;28;20044;-56
2023/08/16 23:54:16;;;;;;;834.30;457.70;;;;;;;;;;5090624;28;20031;-59
2023/08/16 23:56:42;;;;;;;856.53;579.65;;;;;;;;;;5087433;28;20019;-57
2023/08/16 23:59:07;;;;;;;896.03;575.35;;;;;;;;;;5089159;28;20027;-59
